Главная страница
METAR-TAF:

METAR-TAF

Аэропорты :

Джинна

Карачи, Пакистан

широта: 24-54N, долгота: 067-08E, высота над уровнем моря: 21 м

Текущие метеонаблюдения

Эта сводка был подготовлена 37 минут назад, в 20:55 UTC
Ветер 4 Узел от западный
Температура 22°C
Влажность 78%
Давление 1011 hPa
Видимость: 4000 м
Отдельные облака на высоте 3000 фута
дым

METAR: OPKC 092055Z 27004KT 4000 FU SCT030 22/18 Q1011 NOSIG

Время: 02:32 (21:32 UTC)

Прогноз

Эта сводка был подготовлена 3 часа и 2 минут назад, в 18:30 UTC
Прогноз действительный с 09-го 21 UTC до 10-го 06 UTC
Ветер 8 Узел от западный
Видимость: 4000 м
Отдельные облака на высоте 3000 фута
мгла
временами
С 10-го 00 UTC до 10-го 04 UTC
Ветер 6 Узел от западный
Видимость: 3000 м
Отдельные облака на высоте 1800 фута
Отдельные облака на высоте 10000 фута
небольшой дождь, Морось

TAF: OPKC 091830Z 0921/1006 27008KT 4000 HZ SCT030 TEMPO 1000/1004 26006KT 3000 -RADZ SCT018 SCT100

Метеонаблюдения и прогнозы для более 4000 аэропортов (сводки METAR и TAF).

Имеющиеся станции представлены на карте желтыми и красными точками.

Чтобы увидеть название станции, наведите на нее мышь.

Затем щелкните, чтобы увидеть метеонаблюдения и метеопрогнозы.

Управление картой: чтобы увеличить масштаб, щелкните зеленые кнопки с черным крестиком; чтобы уменьшить масштаб, щелкните зеленую кнопку с тире; для просмотра соседних карт щелкайте зеленые стрелки.


METAR-TAF: